Time;durP1;ratioP1;P1;durP2;ratioP2;P2;SDS_P1;SDS_P2;PMS_P1;PMS_P2;Temp;Humidity;BMP_temperature;BMP_pressure;BME280_temperature;BME280_humidity;BME280_pressure;Samples;Min_cycle;Max_cycle;Signal;HPM_P1;HPM_P2
2021/04/15 00:01:33;;;;;;;6.47;2.30;;;5.00;78.50;;;;;;5056797;28;20032;-88
2021/04/15 00:03:58;;;;;;;8.23;2.17;;;5.00;78.20;;;;;;5055174;28;20342;-86
2021/04/15 00:06:29;;;;;;;6.70;1.58;;;4.90;78.40;;;;;;5059182;28;20166;-87
2021/04/15 00:08:55;;;;;;;;;;;4.90;78.80;;;;;;5072520;28;20031;-87
2021/04/15 00:11:27;;;;;;;7.13;2.58;;;5.00;79.20;;;;;;5061504;28;19913;-88
2021/04/15 00:13:56;;;;;;;7.45;2.00;;;5.00;79.00;;;;;;5054424;28;20097;-87
2021/04/15 00:16:22;;;;;;;6.97;1.80;;;5.00;79.20;;;;;;5055537;28;20052;-86
2021/04/15 00:18:49;;;;;;;3.75;1.45;;;5.00;79.50;;;;;;5054149;28;20021;-86
2021/04/15 00:21:15;;;;;;;6.05;2.03;;;5.00;79.90;;;;;;5054068;28;20021;-86
2021/04/15 00:23:41;;;;;;;8.18;2.08;;;5.00;80.40;;;;;;5054041;28;20020;-84
2021/04/15 00:26:09;;;;;;;5.32;1.60;;;5.00;80.30;;;;;;5053436;28;20044;-85
2021/04/15 00:28:35;;;;;;;5.30;1.65;;;5.10;81.60;;;;;;5054319;28;20052;-88
2021/04/15 00:31:00;;;;;;;3.50;1.30;;;5.00;81.20;;;;;;5054171;28;20025;-87
2021/04/15 00:33:26;;;;;;;4.25;1.00;;;5.00;81.40;;;;;;5054601;28;20027;-87
2021/04/15 00:35:52;;;;;;;6.32;1.02;;;5.00;82.10;;;;;;5053730;28;20036;-88
2021/04/15 00:38:19;;;;;;;4.68;1.23;;;5.00;82.90;;;;;;5054003;28;20107;-85
2021/04/15 00:40:47;;;;;;;4.18;1.38;;;5.10;83.40;;;;;;5054315;28;20040;-86
2021/04/15 00:43:14;;;;;;;4.57;0.82;;;5.10;83.80;;;;;;5053346;28;20023;-84
2021/04/15 00:45:42;;;;;;;4.47;1.20;;;5.10;84.20;;;;;;5053087;28;20021;-86
2021/04/15 00:48:36;;;;;;;3.50;1.10;;;5.10;84.60;;;;;;5052782;28;20063;-84
2021/04/15 00:51:31;;;;;;;8.18;1.25;;;5.00;84.50;;;;;;5052557;28;20020;-81
2021/04/15 00:54:07;;;;;;;4.43;1.00;;;5.00;85.20;;;;;;5052402;28;20158;-83
2021/04/15 00:56:33;;;;;;;2.08;0.80;;;5.00;85.90;;;;;;5052117;28;20024;-83
2021/04/15 00:59:01;;;;;;;3.00;1.02;;;5.00;86.30;;;;;;5052262;28;20033;-82
2021/04/15 01:01:27;;;;;;;1.45;0.60;;;5.00;87.20;;;;;;5052201;28;20017;-81
2021/04/15 01:03:53;;;;;;;3.90;1.20;;;4.90;86.90;;;;;;5051798;28;20020;-80
2021/04/15 01:06:20;;;;;;;5.35;1.10;;;4.80;87.00;;;;;;5053590;28;20087;-79
2021/04/15 01:08:46;;;;;;;2.53;1.13;;;4.80;86.80;;;;;;5055061;28;20040;-80
2021/04/15 01:11:18;;;;;;;4.15;1.20;;;4.80;88.10;;;;;;5059244;28;20049;-82
2021/04/15 01:13:55;;;;;;;2.80;0.88;;;4.70;87.50;;;;;;5061461;28;20071;-82
2021/04/15 01:16:33;;;;;;;4.50;0.80;;;4.70;87.40;;;;;;5052292;28;20916;-83
2021/04/15 01:19:28;;;;;;;2.35;0.90;;;4.70;87.80;;;;;;5052386;28;20029;-84
2021/04/15 01:22:36;;;;;;;3.70;1.33;;;4.70;87.70;;;;;;5051924;28;20013;-82
2021/04/15 01:25:23;;;;;;;2.20;1.00;;;4.70;88.30;;;;;;5052112;28;20021;-83
2021/04/15 01:27:52;;;;;;;3.22;1.00;;;4.70;88.50;;;;;;5051467;28;20454;-82
2021/04/15 01:30:36;;;;;;;2.72;0.88;;;4.80;88.80;;;;;;5052236;28;20025;-82
2021/04/15 01:33:35;;;;;;;2.03;0.98;;;4.70;88.30;;;;;;5051052;28;20028;-83
2021/04/15 01:36:12;;;;;;;1.88;0.60;;;4.70;89.30;;;;;;5050691;28;20087;-83
2021/04/15 01:38:52;;;;;;;2.22;0.80;;;4.70;88.50;;;;;;5051549;28;20017;-82
2021/04/15 01:41:25;;;;;;;2.70;1.30;;;4.70;88.10;;;;;;5050816;28;20025;-82
2021/04/15 01:43:57;;;;;;;2.47;0.82;;;4.70;88.10;;;;;;5050923;28;20174;-83
2021/04/15 01:46:33;;;;;;;2.40;0.90;;;4.70;87.80;;;;;;5050758;28;20028;-83
2021/04/15 01:49:00;;;;;;;3.90;0.93;;;4.70;88.50;;;;;;5051030;28;20029;-84
2021/04/15 01:51:41;;;;;;;3.50;0.95;;;4.70;88.80;;;;;;5051023;28;20400;-83
2021/04/15 01:54:20;;;;;;;4.10;0.93;;;4.60;88.70;;;;;;5050808;28;20061;-82
2021/04/15 01:56:59;;;;;;;2.50;1.00;;;4.60;88.90;;;;;;5052606;28;20028;-83
2021/04/15 01:59:40;;;;;;;3.83;1.10;;;4.60;89.00;;;;;;5052140;28;20029;-83
2021/04/15 02:02:21;;;;;;;4.50;1.00;;;4.60;89.30;;;;;;5050786;28;20036;-82
2021/04/15 02:04:59;;;;;;;4.07;0.90;;;4.60;89.00;;;;;;5052462;28;20028;-81
2021/04/15 02:07:28;;;;;;;4.70;1.00;;;4.60;88.90;;;;;;5063506;28;20403;-78
2021/04/15 02:09:57;;;;;;;2.17;1.00;;;4.60;89.40;;;;;;5052347;28;20094;-83
2021/04/15 02:12:27;;;;;;;2.83;0.95;;;4.60;90.00;;;;;;5050805;28;20037;-83
2021/04/15 02:15:19;;;;;;;2.58;1.13;;;4.70;89.10;;;;;;5051047;28;20021;-83
2021/04/15 02:17:47;;;;;;;2.78;0.88;;;4.70;89.20;;;;;;5053648;28;20024;-82
2021/04/15 02:20:20;;;;;;;4.18;1.25;;;4.70;89.20;;;;;;5054468;28;20018;-82
2021/04/15 02:23:25;;;;;;;3.85;0.95;;;4.70;89.10;;;;;;5054876;28;20075;-82
2021/04/15 02:25:57;;;;;;;4.50;1.00;;;4.70;89.50;;;;;;5054022;28;20033;-81
2021/04/15 02:28:26;;;;;;;6.40;1.40;;;4.70;89.80;;;;;;5054494;28;20426;-81
2021/04/15 02:31:18;;;;;;;1.75;1.05;;;4.70;90.00;;;;;;5054667;28;20066;-81
2021/04/15 02:34:06;;;;;;;2.55;1.13;;;4.80;90.00;;;;;;5055987;28;20021;-81
2021/04/15 02:36:58;;;;;;;2.25;1.08;;;4.80;90.00;;;;;;5054457;28;20100;-81
2021/04/15 02:39:32;;;;;;;4.10;1.08;;;4.80;90.00;;;;;;5057399;28;20091;-81
2021/04/15 02:42:03;;;;;;;6.15;1.42;;;4.80;90.00;;;;;;5054452;28;20028;-81
2021/04/15 02:44:36;;;;;;;2.40;1.20;;;4.80;90.00;;;;;;5054185;28;20021;-83
2021/04/15 02:47:07;;;;;;;5.07;2.00;;;4.80;90.00;;;;;;5054263;28;20359;-82
2021/04/15 02:49:35;;;;;;;6.47;2.67;;;4.80;89.70;;;;;;5054462;28;20031;-82
2021/04/15 02:52:16;;;;;;;7.95;2.60;;;4.80;89.60;;;;;;5054176;28;20091;-82
2021/04/15 02:54:55;;;;;;;8.38;2.33;;;4.80;89.40;;;;;;5074085;28;20122;-82
2021/04/15 02:57:24;;;;;;;3.63;1.50;;;4.80;89.50;;;;;;5075102;28;20063;-81
2021/04/15 02:59:59;;;;;;;4.22;1.45;;;4.80;90.10;;;;;;5075149;28;20109;-80
2021/04/15 03:02:29;;;;;;;5.28;1.50;;;4.80;89.80;;;;;;5073830;28;20464;-81
2021/04/15 03:04:59;;;;;;;2.33;1.27;;;4.70;89.60;;;;;;5075112;28;20025;-82
2021/04/15 03:07:29;;;;;;;3.13;1.40;;;4.70;90.00;;;;;;5073584;28;20016;-82
2021/04/15 03:09:58;;;;;;;2.85;1.10;;;4.70;90.10;;;;;;5074223;28;20016;-81
2021/04/15 03:12:30;;;;;;;3.88;1.83;;;4.70;90.10;;;;;;5075064;28;20044;-80
2021/04/15 03:15:26;;;;;;;4.07;1.52;;;4.70;90.10;;;;;;5074996;28;20371;-80
2021/04/15 03:17:58;;;;;;;3.97;1.08;;;4.60;90.00;;;;;;5073647;28;20024;-80
2021/04/15 03:20:49;;;;;;;2.55;1.30;;;4.70;90.10;;;;;;5073515;28;20013;-81
2021/04/15 03:23:42;;;;;;;4.88;1.38;;;4.70;90.10;;;;;;5074911;28;20036;-81
2021/04/15 03:26:31;;;;;;;4.75;1.40;;;4.60;90.00;;;;;;5073829;28;20044;-82
2021/04/15 03:29:19;;;;;;;3.83;1.30;;;4.60;90.00;;;;;;5073580;28;20029;-81
2021/04/15 03:32:07;;;;;;;2.95;1.33;;;4.60;89.90;;;;;;5073691;28;20017;-82
2021/04/15 03:34:51;;;;;;;2.10;1.20;;;4.50;89.60;;;;;;5074576;28;20346;-82
2021/04/15 03:37:22;;;;;;;5.00;1.30;;;4.50;89.50;;;;;;5072833;28;20074;-82
2021/04/15 03:39:51;;;;;;;6.35;1.55;;;4.40;89.50;;;;;;5073118;28;20021;-82
2021/04/15 03:42:35;;;;;;;7.40;1.48;;;4.30;89.40;;;;;;5073102;28;20408;-80
2021/04/15 03:45:08;;;;;;;5.32;1.50;;;4.30;89.40;;;;;;5073397;28;20042;-81
2021/04/15 03:47:41;;;;;;;3.65;1.55;;;4.20;89.80;;;;;;5072838;28;20090;-82
2021/04/15 03:50:17;;;;;;;4.32;1.40;;;4.10;90.10;;;;;;5073109;28;20056;-82
2021/04/15 03:52:51;;;;;;;4.53;1.48;;;4.10;90.10;;;;;;5069369;28;20461;-83
2021/04/15 03:55:26;;;;;;;2.58;1.30;;;4.00;90.00;;;;;;5052654;28;20028;-82
2021/04/15 03:57:57;;;;;;;3.22;1.38;;;4.00;90.00;;;;;;5052791;28;20067;-82
2021/04/15 04:00:36;;;;;;;4.72;1.50;;;3.90;90.00;;;;;;5052725;28;20385;-82
2021/04/15 04:03:16;;;;;;;10.38;2.40;;;3.90;90.00;;;;;;5053770;28;20461;-82
2021/04/15 04:05:48;;;;;;;2.90;1.48;;;3.90;90.10;;;;;;5054660;28;20064;-80
2021/04/15 04:08:42;;;;;;;5.00;1.77;;;3.80;90.30;;;;;;5061153;28;20017;-79
2021/04/15 04:11:12;;;;;;;4.07;1.90;;;3.80;90.30;;;;;;5051508;28;20052;-82
2021/04/15 04:13:41;;;;;;;4.10;1.65;;;3.80;90.30;;;;;;5052810;28;20040;-82
2021/04/15 04:16:09;;;;;;;5.13;1.50;;;3.70;90.40;;;;;;5052660;28;20031;-82
2021/04/15 04:18:46;;;;;;;7.80;1.90;;;3.80;90.30;;;;;;5052618;28;20070;-83
2021/04/15 04:21:30;;;;;;;6.28;1.77;;;3.70;90.00;;;;;;5053935;28;20017;-82
2021/04/15 04:24:13;;;;;;;7.13;1.83;;;3.70;90.10;;;;;;5052786;28;20021;-83
2021/04/15 04:26:44;;;;;;;3.83;1.63;;;3.70;90.20;;;;;;5052736;28;20470;-83
2021/04/15 04:29:32;;;;;;;7.70;1.98;;;3.70;90.00;;;;;;5052259;28;20017;-83
2021/04/15 04:32:02;;;;;;;4.18;1.92;;;3.60;90.00;;;;;;5054125;28;20029;-83
2021/04/15 04:34:30;;;;;;;3.85;2.10;;;3.60;90.10;;;;;;5052160;28;20476;-84
2021/04/15 04:36:57;;;;;;;8.70;2.28;;;3.60;90.20;;;;;;5052363;28;20019;-83
2021/04/15 04:39:26;;;;;;;5.00;2.15;;;3.60;90.40;;;;;;5052864;28;20525;-84
2021/04/15 04:42:10;;;;;;;5.30;2.83;;;3.60;90.00;;;;;;5052365;28;20462;-83
2021/04/15 04:44:40;;;;;;;9.88;4.10;;;3.50;90.00;;;;;;5052018;28;20115;-83
2021/04/15 04:47:17;;;;;;;9.15;4.22;;;3.50;90.00;;;;;;5052260;28;20027;-83
2021/04/15 04:49:45;;;;;;;10.82;3.75;;;3.50;90.10;;;;;;5052399;28;20070;-83
2021/04/15 04:52:19;;;;;;;7.80;3.25;;;3.50;90.20;;;;;;5053703;28;20025;-83
2021/04/15 04:54:45;;;;;;;8.10;3.17;;;3.50;90.00;;;;;;5052732;28;20013;-84
2021/04/15 04:57:17;;;;;;;8.90;4.75;;;3.50;90.00;;;;;;5052609;28;20023;-83
2021/04/15 04:59:50;;;;;;;8.57;3.67;;;3.50;90.10;;;;;;5051935;28;20062;-83
2021/04/15 05:02:16;;;;;;;9.70;3.58;;;3.50;90.30;;;;;;5053744;28;20095;-83
2021/04/15 05:04:43;;;;;;;5.82;3.28;;;3.50;90.20;;;;;;5052434;28;20029;-84
2021/04/15 05:07:19;;;;;;;6.05;3.35;;;3.50;90.20;;;;;;5051905;28;20079;-82
2021/04/15 05:09:45;;;;;;;6.55;3.60;;;3.50;90.40;;;;;;5051846;28;20013;-82
2021/04/15 05:12:32;;;;;;;10.82;3.17;;;3.50;90.30;;;;;;5051491;28;20048;-82
2021/04/15 05:14:59;;;;;;;9.63;3.80;;;3.60;90.40;;;;;;5052029;28;20124;-82
2021/04/15 05:17:32;;;;;;;7.63;3.50;;;3.60;90.70;;;;;;5051798;28;20480;-83
2021/04/15 05:20:07;;;;;;;7.50;4.05;;;3.60;90.40;;;;;;5051119;28;20396;-82
2021/04/15 05:22:37;;;;;;;9.40;4.03;;;3.70;90.50;;;;;;5051601;28;20346;-82
2021/04/15 05:25:11;;;;;;;7.72;4.20;;;3.70;90.50;;;;;;5056289;28;20048;-82
2021/04/15 05:27:38;;;;;;;8.63;4.78;;;3.70;90.50;;;;;;5054733;28;20143;-82
2021/04/15 05:30:24;;;;;;;9.85;4.65;;;3.80;90.80;;;;;;5051279;28;20079;-83
2021/04/15 05:32:51;;;;;;;10.80;5.10;;;3.80;90.60;;;;;;5052650;28;20043;-83
2021/04/15 05:35:23;;;;;;;10.43;5.20;;;3.90;90.60;;;;;;5052480;28;20222;-82
2021/04/15 05:37:52;;;;;;;8.80;4.38;;;3.90;90.60;;;;;;5051112;28;20432;-85
2021/04/15 05:40:18;;;;;;;8.18;4.18;;;4.00;90.60;;;;;;5052339;28;20029;-81
2021/04/15 05:42:54;;;;;;;9.50;4.43;;;4.00;90.50;;;;;;5051401;28;20009;-82
2021/04/15 05:45:26;;;;;;;11.52;4.85;;;4.00;90.40;;;;;;5051051;28;20028;-84
2021/04/15 05:48:08;;;;;;;11.20;4.82;;;4.10;90.70;;;;;;5050968;28;20017;-82
2021/04/15 05:50:46;;;;;;;13.23;5.70;;;4.20;90.90;;;;;;5050796;28;20013;-82
2021/04/15 05:53:18;;;;;;;12.00;6.18;;;4.30;91.00;;;;;;5058608;28;20016;-83
2021/04/15 05:56:05;;;;;;;10.13;5.65;;;4.40;91.20;;;;;;5071166;28;20020;-83
2021/04/15 05:59:04;;;;;;;14.70;5.57;;;4.60;91.40;;;;;;5070432;28;20073;-82
2021/04/15 06:01:41;;;;;;;11.27;5.45;;;4.80;91.80;;;;;;5065554;28;20368;-81
2021/04/15 06:04:17;;;;;;;10.75;5.68;;;5.00;91.70;;;;;;5072116;28;20016;-85
2021/04/15 06:06:44;;;;;;;10.77;4.93;;;5.20;91.30;;;;;;5070449;28;20020;-86
2021/04/15 06:09:10;;;;;;;11.52;4.85;;;5.50;91.20;;;;;;5073699;28;20024;-85
2021/04/15 06:11:47;;;;;;;7.78;4.30;;;5.60;90.60;;;;;;5070140;28;20468;-84
2021/04/15 06:14:26;;;;;;;10.45;3.65;;;5.80;90.50;;;;;;5072427;28;20043;-84
2021/04/15 06:17:17;;;;;;;17.65;5.00;;;6.00;90.00;;;;;;5072522;28;20025;-85
2021/04/15 06:19:49;;;;;;;13.68;5.30;;;6.10;88.80;;;;;;5070776;28;20514;-85
2021/04/15 06:22:21;;;;;;;11.18;4.03;;;6.10;89.40;;;;;;5070777;28;20016;-85
2021/04/15 06:24:52;;;;;;;14.38;3.60;;;6.20;89.30;;;;;;5071046;28;20016;-86
2021/04/15 06:27:18;;;;;;;11.35;3.20;;;6.30;88.80;;;;;;5070512;28;20473;-84
2021/04/15 06:29:58;;;;;;;8.90;2.72;;;6.40;88.30;;;;;;5070622;28;20021;-85
2021/04/15 06:32:33;;;;;;;10.00;3.47;;;6.50;87.50;;;;;;5070582;28;20051;-86
2021/04/15 06:34:59;;;;;;;5.82;2.13;;;6.70;87.70;;;;;;5070788;28;20017;-88
2021/04/15 06:37:37;;;;;;;6.63;2.97;;;6.80;86.40;;;;;;5070622;28;20019;-87
2021/04/15 06:40:38;;;;;;;7.25;2.30;;;7.00;85.70;;;;;;5071356;28;20024;-87
2021/04/15 06:43:30;;;;;;;4.88;2.03;;;7.10;84.50;;;;;;5071119;28;20457;-86
2021/04/15 06:46:14;;;;;;;10.00;3.03;;;7.10;82.60;;;;;;5071317;28;20481;-88
2021/04/15 06:49:17;;;;;;;5.50;1.70;;;7.10;82.30;;;;;;5070390;28;20033;-86
2021/04/15 06:52:02;;;;;;;6.03;1.85;;;7.00;82.80;;;;;;5070363;28;20023;-86
2021/04/15 06:55:02;;;;;;;11.65;4.57;;;7.00;83.00;;;;;;5070265;28;20432;-86
2021/04/15 06:57:44;;;;;;;9.20;3.90;;;7.00;83.60;;;;;;5070278;28;20048;-85
2021/04/15 07:00:14;;;;;;;7.72;3.38;;;7.10;83.90;;;;;;5070281;28;20012;-86
2021/04/15 07:03:01;;;;;;;8.20;3.85;;;7.20;83.90;;;;;;5071898;28;20107;-88
2021/04/15 07:05:36;;;;;;;10.30;3.63;;;7.40;83.70;;;;;;5073853;28;20032;-81
2021/04/15 07:08:25;;;;;;;10.18;3.72;;;7.50;82.20;;;;;;5074435;28;20027;-87
2021/04/15 07:10:57;;;;;;;7.13;2.95;;;7.60;81.80;;;;;;5075021;28;20023;-86
2021/04/15 07:13:43;;;;;;;6.80;3.00;;;7.70;80.70;;;;;;5073501;28;20067;-88
2021/04/15 07:16:41;;;;;;;11.55;3.58;;;7.80;81.30;;;;;;5074401;28;20025;-88
2021/04/15 07:19:25;;;;;;;8.65;2.45;;;8.10;80.60;;;;;;5074236;28;20016;-87
2021/04/15 07:22:04;;;;;;;14.02;6.60;;;8.40;79.10;;;;;;5075629;28;20020;-88
2021/04/15 07:25:15;;;;;;;12.70;4.60;;;8.50;77.40;;;;;;5075039;28;20017;-88
2021/04/15 07:27:48;;;;;;;14.52;3.63;;;8.40;76.90;;;;;;5056193;28;20043;-84
2021/04/15 07:30:27;;;;;;;9.27;3.40;;;8.40;75.40;;;;;;5057026;28;20173;-89
2021/04/15 07:33:30;;;;;;;5.70;1.48;;;8.40;75.80;;;;;;5068376;28;20025;-88
2021/04/15 07:36:26;;;;;;;8.65;2.40;;;8.30;76.70;;;;;;5073792;28;20506;-87
2021/04/15 07:39:16;;;;;;;4.80;2.17;;;8.30;76.30;;;;;;5075559;28;20021;-84
2021/04/15 07:41:58;;;;;;;6.68;2.40;;;8.40;74.40;;;;;;5074796;28;20136;-85
2021/04/15 07:44:29;;;;;;;5.57;2.05;;;8.50;74.10;;;;;;5081136;28;20052;-85
2021/04/15 07:47:24;;;;;;;9.63;1.90;;;8.60;73.70;;;;;;5079478;28;20024;-84
2021/04/15 07:50:12;;;;;;;5.05;1.98;;;8.70;73.40;;;;;;5082542;28;20044;-87
2021/04/15 07:53:15;;;;;;;6.95;1.70;;;8.80;72.30;;;;;;5074087;28;20008;-87
2021/04/15 07:56:03;;;;;;;2.33;0.90;;;8.80;73.50;;;;;;5073692;28;20029;-90
2021/04/15 07:58:37;;;;;;;4.90;1.30;;;8.90;75.00;;;;;;5074080;28;20114;-87
2021/04/15 08:01:37;;;;;;;5.30;1.27;;;8.90;73.10;;;;;;5073936;28;20025;-88
2021/04/15 08:04:38;;;;;;;6.10;1.57;;;9.00;72.60;;;;;;5073909;28;20048;-88
2021/04/15 08:07:40;;;;;;;5.60;2.40;;;9.10;71.80;;;;;;5076956;28;20021;-88
2021/04/15 08:10:15;;;;;;;5.53;1.85;;;9.20;70.40;;;;;;5082380;28;20024;-90
2021/04/15 08:13:22;;;;;;;4.47;1.92;;;9.10;71.00;;;;;;5074429;28;20037;-90
2021/04/15 08:16:30;;;;;;;5.05;1.95;;;9.00;70.60;;;;;;5066985;28;20503;-91
2021/04/15 08:19:23;;;;;;;6.05;2.05;;;9.10;70.80;;;;;;5073953;28;20036;-86
2021/04/15 08:21:58;;;;;;;9.05;2.25;;;9.30;70.30;;;;;;5073369;28;20511;-91
2021/04/15 08:24:48;;;;;;;4.25;1.05;;;9.30;69.20;;;;;;5074660;28;20020;-86
2021/04/15 08:27:36;;;;;;;7.10;1.90;;;9.10;72.50;;;;;;5072167;28;20028;-88
2021/04/15 08:30:17;;;;;;;3.90;1.58;;;9.00;69.90;;;;;;5075068;28;20169;-86
2021/04/15 08:32:56;;;;;;;4.45;2.05;;;8.90;70.70;;;;;;5074327;28;20013;-87
2021/04/15 08:36:21;;;;;;;9.45;1.63;;;8.90;69.90;;;;;;5073871;28;20038;-88
2021/04/15 08:39:38;;;;;;;4.05;1.95;;;8.80;69.40;;;;;;5055087;28;20036;-89
2021/04/15 08:42:27;;;;;;;5.80;1.75;;;8.70;69.80;;;;;;5028711;28;20369;-87
2021/04/15 08:45:02;;;;;;;9.23;1.52;;;8.70;71.40;;;;;;5071925;28;20029;-90
2021/04/15 08:48:06;;;;;;;4.45;1.25;;;8.70;75.50;;;;;;5070625;28;20036;-93
2021/04/15 08:51:19;;;;;;;6.05;2.13;;;8.60;76.20;;;;;;5074529;28;20032;-90
2021/04/15 08:54:27;;;;;;;6.35;1.77;;;8.60;73.40;;;;;;5058995;28;20465;-91
2021/04/15 08:57:18;;;;;;;6.72;0.90;;;8.60;73.70;;;;;;5053683;28;20123;-90
2021/04/15 09:00:11;;;;;;;4.53;1.10;;;8.60;76.50;;;;;;5048763;28;20033;-87
2021/04/15 09:03:24;;;;;;;5.70;1.63;;;8.70;75.70;;;;;;5054208;28;20021;-87
2021/04/15 09:06:21;;;;;;;3.75;1.40;;;8.70;72.40;;;;;;5050548;28;20025;-89
2021/04/15 09:09:15;;;;;;;5.05;1.75;;;8.90;72.80;;;;;;5051841;28;20048;-87
2021/04/15 09:11:56;;;;;;;4.10;1.52;;;8.90;70.20;;;;;;5052092;28;20052;-91
2021/04/15 09:15:17;;;;;;;2.70;1.10;;;9.00;67.20;;;;;;5053718;28;20446;-91
2021/04/15 09:18:05;;;;;;;3.45;1.02;;;9.10;70.00;;;;;;5052342;28;20015;-91
2021/04/15 09:20:33;;;;;;;2.03;0.80;;;9.30;69.30;;;;;;5052311;28;20071;-87
2021/04/15 09:23:31;;;;;;;3.58;1.05;;;9.20;71.50;;;;;;5053563;28;20021;-89
2021/04/15 09:26:18;;;;;;;3.88;1.23;;;9.20;69.90;;;;;;5053365;28;20368;-91
2021/04/15 09:29:08;;;;;;;3.00;1.15;;;9.20;68.40;;;;;;5053541;28;20017;-91
2021/04/15 09:31:53;;;;;;;6.10;1.90;;;9.40;73.60;;;;;;5054178;28;20364;-89
2021/04/15 09:34:42;;;;;;;2.33;1.00;;;9.60;66.40;;;;;;5052595;28;20017;-92
2021/04/15 09:38:01;;;;;;;3.38;1.45;;;10.00;65.90;;;;;;5054693;28;20526;-92
2021/04/15 09:40:48;;;;;;;4.30;1.30;;;10.30;64.20;;;;;;5034793;28;20033;-89
2021/04/15 09:43:27;;;;;;;2.20;0.90;;;10.40;64.90;;;;;;5034069;28;20017;-88
2021/04/15 09:46:34;;;;;;;1.52;0.82;;;10.60;72.00;;;;;;5048622;28;20060;-91
2021/04/15 09:49:38;;;;;;;5.32;1.35;;;10.60;71.70;;;;;;5053198;28;20033;-92
2021/04/15 09:52:28;;;;;;;4.55;1.42;;;10.40;70.60;;;;;;5054785;28;20021;-91
2021/04/15 09:55:05;;;;;;;3.97;1.70;;;10.40;70.00;;;;;;5052275;28;20017;-85
2021/04/15 09:58:03;;;;;;;2.22;1.05;;;10.30;68.70;;;;;;5051685;28;20044;-89
2021/04/15 10:01:01;;;;;;;2.45;1.33;;;10.20;73.40;;;;;;5052825;28;20021;-88
2021/04/15 10:04:25;;;;;;;;;;;;;;;;;;;;;
2021/04/15 10:06:55;;;;;;;3.70;2.20;;;10.00;68.70;;;;;;5094766;28;20038;-91
2021/04/15 10:10:48;;;;;;;4.60;1.65;;;10.10;65.50;;;;;;5062759;28;20095;-91
2021/04/15 10:13:50;;;;;;;;;;;;;;;;;;;;;
2021/04/15 10:17:01;;;;;;;;;;;;;;;;;;;;;
2021/04/15 10:19:47;;;;;;;6.13;2.00;;;10.40;67.70;;;;;;5053407;28;20035;-90
2021/04/15 10:22:15;;;;;;;5.53;2.33;;;10.50;65.70;;;;;;5053444;28;20035;-90
2021/04/15 10:24:49;;;;;;;4.25;2.10;;;10.60;63.70;;;;;;5051889;28;20084;-92
2021/04/15 10:27:33;;;;;;;4.00;1.98;;;10.70;60.50;;;;;;5050860;28;20079;-89
2021/04/15 10:30:21;;;;;;;4.15;1.90;;;10.60;59.40;;;;;;5050323;28;20021;-89
2021/04/15 10:33:08;;;;;;;3.60;1.58;;;10.80;60.40;;;;;;5050714;28;20020;-88
2021/04/15 10:35:52;;;;;;;6.80;1.98;;;11.10;59.30;;;;;;5050837;28;20025;-86
2021/04/15 10:38:55;;;;;;;6.68;1.92;;;11.50;57.70;;;;;;5053572;28;20028;-87
2021/04/15 10:41:56;;;;;;;5.72;2.17;;;11.60;56.80;;;;;;5056150;28;20109;-87
2021/04/15 10:44:49;;;;;;;5.82;1.90;;;11.40;57.30;;;;;;5055079;28;20047;-86
2021/04/15 10:47:36;;;;;;;4.93;2.45;;;11.20;57.80;;;;;;5057300;28;20074;-88
2021/04/15 10:50:31;;;;;;;3.17;1.88;;;10.90;56.90;;;;;;5060205;28;20422;-89
2021/04/15 10:52:59;;;;;;;5.07;2.30;;;10.70;57.40;;;;;;5054866;28;20017;-88
2021/04/15 10:55:39;;;;;;;4.38;1.85;;;10.70;58.40;;;;;;5057783;28;20017;-88
2021/04/15 10:58:30;;;;;;;4.25;1.80;;;10.90;58.10;;;;;;5055289;28;20017;-89
2021/04/15 11:00:57;;;;;;;5.85;2.33;;;10.90;57.80;;;;;;5054696;28;20110;-90
2021/04/15 11:03:33;;;;;;;4.35;1.85;;;10.90;57.20;;;;;;5055237;28;20048;-88
2021/04/15 11:05:58;;;;;;;5.05;2.47;;;11.20;58.70;;;;;;5054715;28;20535;-88
2021/04/15 11:08:31;;;;;;;3.17;1.60;;;11.80;56.40;;;;;;5055081;28;20055;-88
2021/04/15 11:11:23;;;;;;;5.35;1.88;;;12.20;53.30;;;;;;5054240;28;20017;-83
2021/04/15 11:14:00;;;;;;;2.63;1.20;;;12.50;51.50;;;;;;5053936;28;20068;-87
2021/04/15 11:16:36;;;;;;;4.45;1.63;;;12.90;51.60;;;;;;5054630;28;20017;-88
2021/04/15 11:19:10;;;;;;;5.03;1.67;;;13.30;52.60;;;;;;5061540;28;20011;-91
2021/04/15 11:21:39;;;;;;;3.25;1.55;;;13.60;49.40;;;;;;5065374;28;20025;-90
2021/04/15 11:24:32;;;;;;;2.70;1.35;;;13.40;48.50;;;;;;5080898;28;20020;-89
2021/04/15 11:27:08;;;;;;;6.43;2.22;;;13.10;53.80;;;;;;5094265;28;20513;-88
2021/04/15 11:29:46;;;;;;;4.57;1.80;;;12.90;48.70;;;;;;5079198;28;20016;-85
2021/04/15 11:32:29;;;;;;;4.05;1.83;;;12.70;49.40;;;;;;5068215;28;20032;-82
2021/04/15 11:35:23;;;;;;;6.07;1.55;;;12.50;51.90;;;;;;5072909;28;20099;-86
2021/04/15 11:39:05;;;;;;;5.82;1.83;;;12.50;61.30;;;;;;5073986;28;20078;-86
2021/04/15 11:41:57;;;;;;;5.53;1.70;;;12.40;54.70;;;;;;5074012;28;20067;-87
2021/04/15 11:44:26;;;;;;;3.03;1.10;;;12.30;52.00;;;;;;5073878;28;20468;-87
2021/04/15 11:46:54;;;;;;;4.53;1.98;;;12.60;58.10;;;;;;5073536;28;20099;-88
2021/04/15 11:50:06;;;;;;;4.97;1.30;;;12.90;57.80;;;;;;5073517;28;20357;-86
2021/04/15 11:53:00;;;;;;;4.68;1.88;;;13.40;69.90;;;;;;5072833;28;20044;-86
2021/04/15 11:55:32;;;;;;;5.15;1.15;;;13.70;49.80;;;;;;5072488;28;20103;-86
2021/04/15 11:58:05;;;;;;;9.95;2.67;;;13.90;57.50;;;;;;5054385;28;20067;-87
2021/04/15 12:00:57;;;;;;;3.35;1.00;;;14.00;55.80;;;;;;5052570;28;20029;-87
2021/04/15 12:04:17;;;;;;;6.13;1.80;;;13.80;64.00;;;;;;5053305;28;20074;-87
2021/04/15 12:07:29;;;;;;;4.53;1.60;;;13.60;51.30;;;;;;5066517;28;20024;-85
2021/04/15 12:10:00;;;;;;;2.88;1.10;;;13.30;54.10;;;;;;5075744;28;20392;-87
2021/04/15 12:12:37;;;;;;;2.10;0.77;;;13.10;62.70;;;;;;5040152;28;20074;-87
2021/04/15 12:15:10;;;;;;;3.42;1.45;;;12.90;66.50;;;;;;5055987;28;20259;-86
2021/04/15 12:17:53;;;;;;;2.35;1.33;;;12.80;67.70;;;;;;5073059;28;20024;-86
2021/04/15 12:20:46;;;;;;;3.25;1.65;;;12.60;64.60;;;;;;5056151;28;20017;-85
2021/04/15 12:23:49;;;;;;;4.57;2.08;;;12.60;55.10;;;;;;5072639;28;20362;-85
2021/04/15 12:26:48;;;;;;;2.33;0.90;;;12.60;57.80;;;;;;5072421;28;20028;-85
2021/04/15 12:29:35;;;;;;;1.83;0.88;;;12.70;68.70;;;;;;5072228;28;20024;-86
2021/04/15 12:32:29;;;;;;;4.20;1.77;;;12.70;65.90;;;;;;5072479;28;20056;-85
2021/04/15 12:35:14;;;;;;;3.42;1.30;;;12.80;51.70;;;;;;5067356;28;20023;-88
2021/04/15 12:38:00;;;;;;;3.35;1.30;;;12.80;52.50;;;;;;5073906;28;20469;-91
2021/04/15 12:41:42;;;;;;;;;;;;;;;;;;;;;
2021/04/15 12:44:34;;;;;;;;;;;;;;;;;;;;;
2021/04/15 12:47:14;;;;;;;;;;;;;;;;;;;;;
2021/04/15 12:49:40;;;;;;;3.88;1.83;;;13.10;63.50;;;;;;5081324;28;20345;-87
2021/04/15 12:52:41;;;;;;;;;;;;;;;;;;;;;
2021/04/15 12:55:29;;;;;;;3.60;2.15;;;13.10;44.10;;;;;;5067347;28;20088;-89
2021/04/15 13:05:11;;;;;;;2.05;0.55;;;12.70;61.00;;;;;;5055298;28;20024;-89
2021/04/15 13:07:52;;;;;;;7.20;2.13;;;12.60;74.60;;;;;;5084915;28;20025;-88
2021/04/15 13:10:26;;;;;;;3.53;1.48;;;12.50;57.60;;;;;;5052522;28;20404;-85
2021/04/15 13:12:58;;;;;;;4.45;1.88;;;12.30;57.80;;;;;;5052531;28;20481;-89
2021/04/15 13:15:24;;;;;;;2.88;1.63;;;12.30;53.40;;;;;;5052504;28;20518;-88
2021/04/15 13:18:02;;;;;;;4.25;1.40;;;12.20;67.80;;;;;;5052251;28;20020;-90
2021/04/15 13:20:27;;;;;;;2.40;0.98;;;12.20;58.80;;;;;;5051624;28;20047;-90
2021/04/15 13:23:09;;;;;;;4.38;1.60;;;12.30;68.10;;;;;;5051927;28;20456;-84
2021/04/15 13:25:50;;;;;;;5.75;2.15;;;12.40;57.60;;;;;;5051879;28;20029;-88
2021/04/15 13:29:13;;;;;;;3.35;1.25;;;12.40;55.50;;;;;;5068011;28;20030;-88
2021/04/15 13:31:49;;;;;;;2.58;1.00;;;12.50;55.20;;;;;;5066377;28;20078;-86
2021/04/15 13:34:28;;;;;;;2.47;1.15;;;12.60;58.80;;;;;;5052822;28;20036;-87
2021/04/15 13:37:30;;;;;;;3.33;1.40;;;12.90;62.30;;;;;;5055236;28;20058;-91
2021/04/15 13:40:22;;;;;;;5.97;2.53;;;13.00;60.60;;;;;;5041995;28;20039;-89
2021/04/15 13:42:50;;;;;;;4.95;2.20;;;13.10;50.40;;;;;;5068690;28;20430;-87
2021/04/15 13:45:37;;;;;;;2.75;1.65;;;13.30;43.20;;;;;;5065571;28;20170;-88
2021/04/15 13:48:03;;;;;;;4.45;1.75;;;13.40;45.00;;;;;;5073245;28;20032;-84
2021/04/15 13:51:14;;;;;;;4.82;1.63;;;13.60;57.10;;;;;;5073481;28;20591;-88
2021/04/15 13:53:57;;;;;;;3.47;1.50;;;13.90;42.70;;;;;;5060226;28;20029;-87
2021/04/15 13:59:40;;;;;;;4.18;1.80;;;13.80;47.30;;;;;;5072703;28;20052;-87
2021/04/15 14:02:14;;;;;;;4.90;1.85;;;13.80;43.80;;;;;;5069152;28;20020;-87
2021/04/15 14:07:44;;;;;;;2.45;1.25;;;13.60;53.30;;;;;;5055599;28;20032;-88
2021/04/15 14:10:16;;;;;;;3.28;1.73;;;13.50;52.60;;;;;;5073379;28;20080;-87
2021/04/15 14:13:13;;;;;;;2.63;0.95;;;13.40;48.30;;;;;;5077194;28;20131;-88
2021/04/15 14:15:49;;;;;;;3.53;1.70;;;13.20;54.60;;;;;;5076133;28;20073;-88
2021/04/15 14:18:30;;;;;;;3.90;1.95;;;13.00;53.20;;;;;;5075113;28;20040;-88
2021/04/15 14:20:59;;;;;;;4.30;1.55;;;13.00;49.70;;;;;;5073953;28;20032;-88
2021/04/15 14:23:32;;;;;;;2.85;1.45;;;13.30;46.60;;;;;;5074373;28;20036;-88
2021/04/15 14:26:07;;;;;;;3.72;1.55;;;13.80;52.60;;;;;;5061050;28;20053;-87
2021/04/15 14:28:35;;;;;;;2.17;0.93;;;14.30;50.40;;;;;;5054951;28;20047;-88
2021/04/15 14:31:15;;;;;;;4.07;1.00;;;14.50;65.70;;;;;;5055116;28;20024;-85